Time;durP1;ratioP1;P1;durP2;ratioP2;P2;SDS_P1;SDS_P2;PMS_P1;PMS_P2;Temp;Humidity;BMP_temperature;BMP_pressure;BME280_temperature;BME280_humidity;BME280_pressure;Samples;Min_cycle;Max_cycle;Signal;HPM_P1;HPM_P2
2023/08/26 00:01:56;;;;;;;4.75;2.13;;;;;;;17.94;100.00;100929.78;5067163;28;20051;-63
2023/08/26 00:04:21;;;;;;;5.47;2.30;;;;;;;17.94;100.00;100927.13;5065455;28;20580;-65
2023/08/26 00:06:47;;;;;;;5.80;2.20;;;;;;;17.94;100.00;100919.13;5048764;28;20055;-64
2023/08/26 00:09:13;;;;;;;6.95;2.35;;;;;;;17.90;100.00;100922.94;5049171;28;20111;-63
2023/08/26 00:11:38;;;;;;;6.32;2.08;;;;;;;17.91;100.00;100923.81;5045188;28;20064;-64
2023/08/26 00:14:04;;;;;;;5.88;2.10;;;;;;;17.98;100.00;100921.59;5029017;28;20514;-61
2023/08/26 00:16:29;;;;;;;6.22;2.42;;;;;;;18.00;100.00;100922.38;5024730;28;20026;-57
2023/08/26 00:18:59;;;;;;;7.75;2.30;;;;;;;18.08;100.00;100917.38;5032315;28;20032;-63
2023/08/26 00:21:24;;;;;;;4.57;2.45;;;;;;;18.11;100.00;100909.22;5046799;28;20493;-64
2023/08/26 00:23:50;;;;;;;7.60;2.40;;;;;;;18.08;100.00;100917.38;5047496;28;20033;-63
2023/08/26 00:26:16;;;;;;;6.72;2.50;;;;;;;18.12;100.00;100916.25;5047687;28;20094;-62
2023/08/26 00:28:42;;;;;;;6.60;2.42;;;;;;;18.16;100.00;100917.78;5048160;28;20083;-60
2023/08/26 00:31:08;;;;;;;4.43;2.30;;;;;;;18.14;100.00;100914.34;5046998;28;20418;-64
2023/08/26 00:33:33;;;;;;;6.40;2.58;;;;;;;18.14;100.00;100914.34;5047481;28;20036;-63
2023/08/26 00:35:58;;;;;;;5.18;2.90;;;;;;;18.19;100.00;100906.88;5048220;28;20021;-59
2023/08/26 00:38:24;;;;;;;10.50;3.28;;;;;;;18.21;100.00;100905.97;5047191;28;20102;-63
2023/08/26 00:40:49;;;;;;;5.25;3.45;;;;;;;18.23;100.00;100896.88;5059996;28;20078;-63
2023/08/26 00:43:14;;;;;;;8.02;3.75;;;;;;;18.21;100.00;100898.78;5067691;28;20052;-63
2023/08/26 00:45:42;;;;;;;9.90;4.60;;;;;;;18.21;100.00;100908.63;5063035;28;20047;-64
2023/08/26 00:48:11;;;;;;;8.30;4.20;;;;;;;18.26;100.00;100907.38;5048109;28;20025;-64
2023/08/26 00:50:39;;;;;;;12.40;4.30;;;;;;;18.13;100.00;100896.66;5047335;28;20028;-60
2023/08/26 00:53:05;;;;;;;9.27;4.67;;;;;;;18.15;100.00;100901.88;5053080;28;20305;-63
2023/08/26 00:55:31;;;;;;;8.90;3.50;;;;;;;18.19;100.00;100904.22;5083180;28;20052;-62
2023/08/26 00:57:57;;;;;;;10.50;3.25;;;;;;;18.24;100.00;100905.75;5066989;28;20104;-64
2023/08/26 01:00:23;;;;;;;9.95;3.03;;;;;;;18.19;100.00;100906.88;5066032;28;20082;-64
2023/08/26 01:02:49;;;;;;;7.75;2.75;;;;;;;18.06;100.00;100900.63;5147411;22;20667;-57
2023/08/26 01:05:15;;;;;;;5.90;2.80;;;;;;;18.08;100.00;100906.72;5003027;28;20084;-62
2023/08/26 01:07:41;;;;;;;10.40;2.85;;;;;;;18.01;100.00;100905.41;5006548;28;20042;-65
2023/08/26 01:10:07;;;;;;;8.65;3.03;;;;;;;17.88;100.00;100906.19;5007733;28;20066;-64
2023/08/26 01:12:50;;;;;;;12.45;2.75;;;;;;;17.75;100.00;100907.91;4973442;28;20053;-65
2023/08/26 01:15:16;;;;;;;12.88;2.83;;;;;;;17.62;100.00;100899.84;5010030;28;20057;-59
2023/08/26 01:17:41;;;;;;;6.55;2.47;;;;;;;17.47;100.00;100899.00;5027042;28;20519;-64
2023/08/26 01:20:08;;;;;;;9.90;2.85;;;;;;;17.36;100.00;100895.19;5015235;28;20042;-64
2023/08/26 01:22:35;;;;;;;10.48;2.75;;;;;;;17.28;100.00;100892.16;4971672;28;20037;-65
2023/08/26 01:25:00;;;;;;;14.15;2.78;;;;;;;17.18;100.00;100892.72;4970142;28;20030;-65
2023/08/26 01:27:26;;;;;;;6.13;2.50;;;;;;;17.06;100.00;100893.44;4993597;28;20092;-64
2023/08/26 01:29:51;;;;;;;8.68;3.03;;;;;;;16.98;100.00;100893.06;5010821;28;20033;-63
2023/08/26 01:32:32;;;;;;;10.00;2.90;;;;;;;16.85;100.00;100891.13;5009065;28;20054;-65
2023/08/26 01:34:58;;;;;;;6.63;2.50;;;;;;;16.85;100.00;100896.44;4992781;28;20088;-64
2023/08/26 01:37:25;;;;;;;6.95;2.85;;;;;;;16.71;100.00;100907.06;4973709;28;20034;-66
2023/08/26 01:39:53;;;;;;;11.80;2.65;;;;;;;16.68;100.00;100898.28;4993302;28;20030;-67
2023/08/26 01:42:23;;;;;;;6.28;2.58;;;;;;;16.60;100.00;100903.22;4994419;28;20038;-61
2023/08/26 01:44:48;;;;;;;12.68;2.80;;;;;;;16.62;100.00;100903.13;5011427;28;20483;-66
2023/08/26 01:47:15;;;;;;;9.65;2.65;;;;;;;16.52;100.00;100898.34;5030975;28;20043;-63
2023/08/26 01:49:40;;;;;;;10.10;2.70;;;;;;;16.50;100.00;100905.53;5017656;28;20026;-64
2023/08/26 01:52:06;;;;;;;5.05;2.55;;;;;;;16.48;100.00;100902.13;5011420;28;20040;-65
2023/08/26 01:54:31;;;;;;;11.98;2.85;;;;;;;16.52;100.00;100892.16;5017448;28;20468;-68
2023/08/26 01:56:57;;;;;;;14.48;3.28;;;;;;;16.53;100.00;100896.56;5031268;28;20725;-62
2023/08/26 01:59:22;;;;;;;6.80;2.38;;;;;;;16.61;100.00;100891.63;5029901;28;20032;-56
2023/08/26 02:01:47;;;;;;;9.30;2.63;;;;;;;16.62;100.00;100890.66;5031223;28;20060;-63
2023/08/26 02:04:13;;;;;;;6.75;2.55;;;;;;;16.63;100.00;100889.75;5026190;28;20042;-64
2023/08/26 02:06:40;;;;;;;10.30;2.88;;;;;;;16.71;100.00;100891.09;4992985;28;20112;-63
2023/08/26 02:09:06;;;;;;;7.07;2.70;;;;;;;16.70;100.00;100894.72;5010064;28;20490;-63
2023/08/26 02:11:32;;;;;;;8.05;2.80;;;;;;;16.72;100.00;100898.13;5011153;28;20030;-61
2023/08/26 02:13:57;;;;;;;10.65;2.75;;;;;;;16.74;100.00;100907.72;5017271;28;20535;-60
2023/08/26 02:16:23;;;;;;;9.32;3.03;;;;;;;16.69;100.00;100901.81;5029660;28;20476;-61
2023/08/26 02:18:48;;;;;;;11.95;3.25;;;;;;;16.61;100.00;100896.06;5025303;28;20037;-65
2023/08/26 02:21:14;;;;;;;14.02;2.83;;;;;;;16.67;100.00;100901.91;5011650;28;20021;-61
2023/08/26 02:23:39;;;;;;;11.18;3.60;;;;;;;16.72;100.00;100896.31;5008969;28;20036;-64
2023/08/26 02:26:05;;;;;;;11.13;3.17;;;;;;;16.66;100.00;100894.88;5011160;28;20053;-62
2023/08/26 02:28:30;;;;;;;15.13;4.70;;;;;;;16.67;100.00;100890.41;5010142;28;20044;-61
2023/08/26 02:30:55;;;;;;;11.85;3.38;;;;;;;16.59;100.00;100887.34;5028337;28;20032;-63
2023/08/26 02:33:21;;;;;;;11.00;3.67;;;;;;;16.64;100.00;100904.75;5030748;28;20033;-62
2023/08/26 02:35:47;;;;;;;8.07;3.75;;;;;;;16.60;100.00;100899.69;5013183;28;20029;-62
2023/08/26 02:38:13;;;;;;;10.43;3.75;;;;;;;16.53;100.00;100899.22;5009624;28;20096;-63
2023/08/26 02:40:38;;;;;;;10.32;3.85;;;;;;;16.47;100.00;100892.44;5009522;28;20236;-62
2023/08/26 02:43:03;;;;;;;9.75;3.50;;;;;;;16.41;100.00;100890.97;5017376;28;20475;-65
2023/08/26 02:45:29;;;;;;;9.23;3.55;;;;;;;16.51;100.00;100893.09;5029192;28;20030;-63
2023/08/26 02:47:54;;;;;;;9.82;3.78;;;;;;;16.59;100.00;100896.19;5022866;28;20113;-61
2023/08/26 02:50:19;;;;;;;9.10;3.67;;;;;;;16.64;100.00;100899.44;5011092;28;20112;-64
2023/08/26 02:52:45;;;;;;;12.18;3.45;;;;;;;16.73;100.00;100898.03;5012118;28;20075;-62
2023/08/26 02:55:10;;;;;;;9.60;3.78;;;;;;;16.65;100.00;100887.00;5030816;28;20026;-64
2023/08/26 02:57:36;;;;;;;9.80;3.92;;;;;;;16.59;100.00;100896.19;5020220;28;20096;-59
2023/08/26 03:00:04;;;;;;;11.52;4.68;;;;;;;16.55;100.00;100899.97;5009137;28;20025;-64
2023/08/26 03:02:29;;;;;;;11.30;4.45;;;;;;;16.47;100.00;100899.56;5009074;28;20030;-60
2023/08/26 03:04:55;;;;;;;9.38;4.68;;;;;;;16.47;100.00;100902.22;5009187;28;20699;-61
2023/08/26 03:07:20;;;;;;;9.38;4.40;;;;;;;16.50;100.00;100897.56;5021994;28;20104;-56
2023/08/26 03:09:45;;;;;;;10.23;3.92;;;;;;;16.52;100.00;100903.66;5030169;28;20080;-63
2023/08/26 03:12:11;;;;;;;10.80;4.00;;;;;;;16.52;100.00;100902.78;5017662;28;20132;-64
2023/08/26 03:14:36;;;;;;;11.90;5.00;;;;;;;16.50;100.00;100900.22;5010155;28;20026;-63
2023/08/26 03:17:01;;;;;;;12.02;4.40;;;;;;;16.52;100.00;100905.44;5007905;28;20030;-57
2023/08/26 03:19:27;;;;;;;10.30;3.90;;;;;;;16.56;100.00;100896.38;5009879;28;20117;-64
2023/08/26 03:21:52;;;;;;;13.05;4.15;;;;;;;16.64;100.00;100906.53;5014715;28;20033;-58
2023/08/26 03:24:17;;;;;;;11.88;3.72;;;;;;;16.61;100.00;100902.25;5029828;28;20032;-61
2023/08/26 03:26:43;;;;;;;14.27;4.88;;;;;;;16.62;100.00;100897.81;5024545;28;20029;-61
2023/08/26 03:29:09;;;;;;;10.05;4.40;;;;;;;16.48;100.00;100898.59;5009822;28;20036;-63
2023/08/26 03:31:34;;;;;;;10.52;4.22;;;;;;;16.49;100.00;100902.97;5007736;28;20029;-61
2023/08/26 03:34:00;;;;;;;12.80;3.88;;;;;;;16.44;100.00;100902.41;5009756;28;20057;-59
2023/08/26 03:36:25;;;;;;;13.23;4.30;;;;;;;16.42;100.00;100905.16;5008913;28;20030;-63
2023/08/26 03:38:50;;;;;;;9.00;3.63;;;;;;;16.33;100.00;100897.69;5009111;28;20038;-64
2023/08/26 03:41:16;;;;;;;9.02;3.75;;;;;;;16.29;100.00;100892.53;5009046;28;20033;-62
2023/08/26 03:43:41;;;;;;;13.43;3.95;;;;;;;16.27;100.00;100898.91;5023722;28;20029;-60
2023/08/26 03:46:06;;;;;;;12.75;3.63;;;;;;;16.29;100.00;100895.19;5028416;28;20698;-62
2023/08/26 03:48:32;;;;;;;12.82;3.78;;;;;;;16.27;100.00;100893.59;5014087;28;20065;-63
2023/08/26 03:50:57;;;;;;;10.55;3.80;;;;;;;16.25;100.00;100906.09;5008491;28;20034;-60
2023/08/26 03:53:24;;;;;;;10.32;3.70;;;;;;;16.27;100.00;100909.53;5018204;28;20031;-59
2023/08/26 03:55:49;;;;;;;7.95;3.10;;;;;;;16.24;100.00;100899.06;5029799;28;20103;-61
2023/08/26 03:58:14;;;;;;;10.15;4.28;;;;;;;16.25;100.00;100906.97;5027576;28;20460;-61
2023/08/26 04:00:40;;;;;;;9.55;3.72;;;;;;;16.23;100.00;100892.91;5028336;28;20025;-62
2023/08/26 04:03:06;;;;;;;12.10;4.13;;;;;;;16.12;100.00;100900.63;5026410;28;20037;-64
2023/08/26 04:05:32;;;;;;;15.38;4.38;;;;;;;15.95;100.00;100906.88;5028961;28;20029;-61
2023/08/26 04:07:58;;;;;;;8.85;4.25;;;;;;;15.93;100.00;100912.28;5007235;28;20767;-63
2023/08/26 04:10:23;;;;;;;13.32;4.20;;;;;;;15.86;100.00;100908.25;5009139;28;20472;-57
2023/08/26 04:12:48;;;;;;;12.85;4.35;;;;;;;15.82;100.00;100915.50;5008467;28;20057;-61
2023/08/26 04:15:14;;;;;;;9.25;4.22;;;;;;;15.75;100.00;100914.13;5028780;28;20048;-64
2023/08/26 04:17:41;;;;;;;14.00;4.55;;;;;;;15.61;100.00;100915.75;5010581;28;20095;-63
2023/08/26 04:20:07;;;;;;;16.75;4.90;;;;;;;15.58;100.00;100907.06;5026935;28;20029;-62
2023/08/26 04:22:33;;;;;;;15.73;4.40;;;;;;;15.51;100.00;100917.19;5028316;28;20121;-59
2023/08/26 04:24:58;;;;;;;11.50;4.35;;;;;;;15.54;100.00;100911.72;5012463;28;20104;-64
2023/08/26 04:27:23;;;;;;;11.25;4.40;;;;;;;15.51;100.00;100919.84;5009902;28;20039;-63
2023/08/26 04:29:49;;;;;;;9.02;4.07;;;;;;;15.43;100.00;100914.06;5008241;28;20103;-63
2023/08/26 04:32:14;;;;;;;10.35;3.97;;;;;;;15.37;100.00;100913.47;5010029;28;20029;-63
2023/08/26 04:34:39;;;;;;;14.63;4.22;;;;;;;15.34;100.00;100918.06;5009268;28;20026;-59
2023/08/26 04:37:05;;;;;;;12.77;4.80;;;;;;;15.31;100.00;100927.06;4991365;28;20377;-61
2023/08/26 04:39:30;;;;;;;8.27;4.32;;;;;;;15.31;100.00;100924.41;4991256;28;20440;-62
2023/08/26 04:41:56;;;;;;;14.82;4.78;;;;;;;15.27;100.00;100922.84;5010470;28;20084;-64
2023/08/26 04:44:21;;;;;;;9.95;4.25;;;;;;;15.19;100.00;100923.25;5008401;28;20030;-59
2023/08/26 04:46:47;;;;;;;14.00;4.70;;;;;;;15.22;100.00;100927.53;5018446;28;20030;-62
2023/08/26 04:49:12;;;;;;;9.65;4.07;;;;;;;15.20;100.00;100926.78;5013641;28;20033;-64
2023/08/26 04:51:38;;;;;;;10.20;4.50;;;;;;;15.19;100.00;100927.69;5007898;28;20033;-64
2023/08/26 04:54:04;;;;;;;18.40;4.50;;;;;;;15.21;100.00;100925.84;5008350;28;20121;-60
2023/08/26 04:56:29;;;;;;;11.75;4.55;;;;;;;15.22;100.00;100933.72;5018179;28;20083;-62
2023/08/26 04:58:55;;;;;;;15.00;5.30;;;;;;;15.16;100.00;100932.25;5028095;28;20385;-62
2023/08/26 05:01:20;;;;;;;14.50;4.80;;;;;;;15.16;100.00;100934.91;5026329;28;20033;-64
2023/08/26 05:03:46;;;;;;;12.88;4.97;;;;;;;15.17;100.00;100941.03;5027270;28;20049;-64
2023/08/26 05:06:11;;;;;;;13.95;4.78;;;;;;;15.12;100.00;100941.31;4992235;28;20036;-62
2023/08/26 05:08:36;;;;;;;12.80;5.07;;;;;;;15.13;100.00;100948.31;5027620;28;20022;-62
2023/08/26 05:11:03;;;;;;;13.35;5.03;;;;;;;15.17;100.00;100954.31;5022523;28;20056;-61
2023/08/26 05:13:28;;;;;;;14.73;4.95;;;;;;;15.23;100.00;100953.16;5008059;28;20033;-64
2023/08/26 05:15:54;;;;;;;12.18;4.47;;;;;;;15.26;100.00;100945.03;5008020;28;20029;-64
2023/08/26 05:18:21;;;;;;;10.80;4.25;;;;;;;15.29;100.00;100942.19;5028057;28;20395;-63
2023/08/26 05:20:46;;;;;;;13.85;4.70;;;;;;;15.36;100.00;100940.97;5027300;28;20037;-64
2023/08/26 05:23:12;;;;;;;15.32;4.15;;;;;;;15.38;100.00;100935.56;5014385;28;20038;-64
2023/08/26 05:25:37;;;;;;;13.48;4.25;;;;;;;15.36;100.00;100943.63;5007608;28;20029;-63
2023/08/26 05:28:06;;;;;;;9.70;3.85;;;;;;;15.41;100.00;100944.22;5009577;28;20109;-62
2023/08/26 05:30:33;;;;;;;14.57;3.60;;;;;;;15.53;100.00;100948.03;5006726;28;20112;-63
2023/08/26 05:32:58;;;;;;;13.05;3.67;;;;;;;15.54;100.00;100944.41;5000958;28;20643;-62
2023/08/26 05:35:23;;;;;;;6.55;3.63;;;;;;;15.61;100.00;100952.06;5026824;28;20115;-64
2023/08/26 05:37:49;;;;;;;9.68;3.25;;;;;;;15.70;100.00;100950.69;5016406;28;20045;-63
2023/08/26 05:40:15;;;;;;;11.55;3.53;;;;;;;15.73;100.00;100953.19;5007485;28;20077;-64
2023/08/26 05:42:41;;;;;;;5.88;2.92;;;;;;;15.82;100.00;100947.41;5006144;28;20026;-63
2023/08/26 05:45:07;;;;;;;11.32;3.53;;;;;;;15.90;100.00;100945.16;5006662;28;20030;-62
2023/08/26 05:47:33;;;;;;;10.38;3.17;;;;;;;16.03;100.00;100944.53;5010633;28;20026;-63
2023/08/26 05:49:59;;;;;;;10.23;3.33;;;;;;;16.09;100.00;100933.56;5027943;28;20522;-62
2023/08/26 05:52:24;;;;;;;12.15;3.00;;;;;;;16.09;100.00;100933.56;5026826;28;20479;-61
2023/08/26 05:54:50;;;;;;;7.88;2.88;;;;;;;16.23;100.00;100930.13;5009213;28;20472;-64
2023/08/26 05:57:15;;;;;;;10.73;2.95;;;;;;;16.29;100.00;100934.25;5008616;28;20026;-62
2023/08/26 05:59:40;;;;;;;12.85;2.97;;;;;;;16.36;100.00;100927.63;5005732;28;20488;-63
2023/08/26 06:02:06;;;;;;;8.32;3.20;;;;;;;16.40;100.00;100925.63;5006491;28;20030;-62
2023/08/26 06:04:32;;;;;;;10.35;3.33;;;;;;;16.40;100.00;100925.63;4986977;28;20045;-61
2023/08/26 06:06:57;;;;;;;11.68;3.10;;;;;;;16.45;100.00;100922.72;4991835;28;20053;-57
2023/08/26 06:09:23;;;;;;;7.13;2.67;;;;;;;16.35;100.00;100933.91;5002861;28;20026;-60
2023/08/26 06:11:49;;;;;;;8.20;2.95;;;;;;;16.44;100.00;100929.00;4991182;28;20370;-63
2023/08/26 06:14:14;;;;;;;10.75;3.67;;;;;;;16.53;100.00;100923.16;5002093;28;20657;-55
2023/08/26 06:16:39;;;;;;;11.25;3.53;;;;;;;16.55;100.00;100922.09;5009898;28;20383;-63
2023/08/26 06:19:05;;;;;;;9.73;3.22;;;;;;;16.67;100.00;100917.88;5010596;28;20037;-62
2023/08/26 06:21:30;;;;;;;10.90;3.53;;;;;;;16.62;100.00;100916.44;4992452;28;20084;-63
2023/08/26 06:23:55;;;;;;;13.68;3.80;;;;;;;16.74;100.00;100914.84;5010779;28;20488;-59
2023/08/26 06:26:21;;;;;;;6.75;3.00;;;;;;;16.83;100.00;100932.06;5011025;28;20100;-63
2023/08/26 06:28:46;;;;;;;9.68;3.55;;;;;;;16.90;100.00;100930.75;5010232;28;20053;-63
2023/08/26 06:31:12;;;;;;;8.13;3.45;;;;;;;17.21;100.00;100933.41;5010329;28;20036;-63
2023/08/26 06:33:37;;;;;;;8.80;3.08;;;;;;;17.49;100.00;100937.91;5010169;28;20065;-60
2023/08/26 06:36:03;;;;;;;9.15;2.45;;;;;;;17.70;100.00;100942.00;5010073;28;20396;-61
2023/08/26 06:38:29;;;;;;;8.77;3.33;;;;;;;17.84;100.00;100944.66;5010406;28;20069;-62
2023/08/26 06:40:55;;;;;;;8.52;2.45;;;;;;;18.10;100.00;100952.84;5010401;28;20022;-61
2023/08/26 06:43:21;;;;;;;10.57;2.63;;;;;;;18.23;100.00;100952.03;5010443;28;20036;-63
2023/08/26 06:45:46;;;;;;;6.72;2.60;;;;;;;18.22;100.00;100959.19;5009278;28;20038;-59
2023/08/26 06:48:11;;;;;;;6.93;2.20;;;;;;;18.18;100.00;100968.31;5010151;28;20439;-60
2023/08/26 06:50:37;;;;;;;11.88;2.28;;;;;;;18.15;100.00;100966.72;5009879;28;20472;-61
2023/08/26 06:53:02;;;;;;;10.18;2.40;;;;;;;18.17;100.00;100966.63;5010103;28;20032;-62
2023/08/26 06:55:27;;;;;;;6.20;2.08;;;;;;;18.17;100.00;100956.81;5010360;28;20467;-62
2023/08/26 06:57:53;;;;;;;8.68;2.60;;;;;;;18.10;100.00;100966.16;5009911;28;20121;-62
2023/08/26 07:00:18;;;;;;;6.18;1.98;;;;;;;18.38;100.00;100960.84;5009877;28;20030;-61
2023/08/26 07:02:44;;;;;;;7.03;2.47;;;;;;;18.32;100.00;100964.78;5009640;28;20018;-64
2023/08/26 07:05:09;;;;;;;8.50;2.45;;;;;;;18.03;100.00;100970.16;5009176;28;20128;-63
2023/08/26 07:07:36;;;;;;;12.70;2.53;;;;;;;18.06;100.00;100973.47;5009433;28;20044;-60
2023/08/26 07:10:05;;;;;;;5.97;2.20;;;;;;;18.09;100.00;100968.91;5007959;28;20104;-60
2023/08/26 07:12:30;;;;;;;;;;;;;;;18.10;100.00;100967.94;4994761;28;20037;-61
2023/08/26 07:14:55;;;;;;;8.95;2.03;;;;;;;18.08;100.00;100965.38;4974286;28;19913;-61
2023/08/26 07:17:21;;;;;;;3.47;1.80;;;;;;;17.88;100.00;100964.81;4991957;28;20033;-62
2023/08/26 07:19:46;;;;;;;5.93;2.05;;;;;;;17.87;100.00;100980.91;5009566;28;20042;-62
2023/08/26 07:22:12;;;;;;;5.90;2.65;;;;;;;17.52;100.00;100971.50;4984243;28;20041;-61
2023/08/26 07:24:37;;;;;;;6.32;2.35;;;;;;;17.81;100.00;100979.50;4990813;28;20073;-60
2023/08/26 07:27:03;;;;;;;6.65;2.47;;;;;;;17.81;100.00;100983.03;4991601;28;20021;-60
2023/08/26 07:29:31;;;;;;;8.73;3.08;;;;;;;17.93;100.00;100970.72;5014700;28;20034;-61
2023/08/26 07:31:56;;;;;;;10.57;2.78;;;;;;;18.08;100.00;100965.38;5019222;28;20037;-61
2023/08/26 07:34:22;;;;;;;4.93;2.50;;;;;;;18.15;100.00;100965.88;5009855;28;20385;-61
2023/08/26 07:36:47;;;;;;;3.65;2.40;;;;;;;18.06;100.00;100975.25;5008714;28;20113;-61
2023/08/26 07:39:13;;;;;;;4.85;2.60;;;;;;;18.08;100.00;100975.16;5025227;28;20039;-63
2023/08/26 07:41:38;;;;;;;3.85;2.20;;;;;;;18.23;100.00;100966.22;5027583;28;20040;-60
2023/08/26 07:44:04;;;;;;;7.32;2.58;;;;;;;18.26;100.00;100981.16;5027220;28;20487;-62
2023/08/26 07:46:29;;;;;;;5.15;2.70;;;;;;;18.40;100.00;100978.47;4989396;28;20036;-61
2023/08/26 07:48:55;;;;;;;5.32;2.30;;;;;;;18.46;100.00;100971.03;5007947;28;20030;-61
2023/08/26 07:51:21;;;;;;;11.18;2.20;;;;;;;18.42;100.00;100979.22;5007311;28;20057;-61
2023/08/26 07:53:46;;;;;;;4.60;2.20;;;;;;;18.57;100.00;100981.84;5007950;28;20029;-62
2023/08/26 07:56:12;;;;;;;3.85;1.80;;;;;;;18.59;100.00;100973.72;5007809;28;20030;-61
2023/08/26 07:58:37;;;;;;;3.88;1.67;;;;;;;18.64;100.00;100974.28;5008187;28;20079;-60
2023/08/26 08:01:02;;;;;;;3.95;1.58;;;;;;;18.63;100.00;100973.44;5000998;28;20405;-59
2023/08/26 08:03:28;;;;;;;6.78;1.60;;;;;;;18.74;100.00;100972.72;4987987;28;20374;-61
2023/08/26 08:05:53;;;;;;;3.85;1.80;;;;;;;18.70;100.00;100968.56;4988173;28;20076;-60
2023/08/26 08:08:19;;;;;;;5.28;1.50;;;;;;;18.69;100.00;100978.38;5024058;28;20492;-60
2023/08/26 08:10:44;;;;;;;5.50;1.38;;;;;;;18.78;100.00;100970.72;5026530;28;20021;-61
2023/08/26 08:13:09;;;;;;;4.57;1.63;;;;;;;18.84;100.00;100975.63;5026447;28;20392;-59
2023/08/26 08:15:35;;;;;;;4.35;1.55;;;;;;;18.89;100.00;100978.00;5027093;28;20495;-60
2023/08/26 08:18:02;;;;;;;3.28;1.25;;;;;;;18.93;100.00;100983.03;5028147;28;20024;-60
2023/08/26 08:20:28;;;;;;;2.45;1.10;;;;;;;18.92;100.00;100983.13;5007758;28;20034;-65
2023/08/26 08:22:53;;;;;;;1.58;1.05;;;;;;;18.96;100.00;100979.28;5009027;28;20040;-62
2023/08/26 08:25:19;;;;;;;2.03;1.15;;;;;;;19.01;100.00;100981.66;5007146;28;20029;-60
2023/08/26 08:27:44;;;;;;;4.00;1.10;;;;;;;19.21;100.00;100990.16;5012664;28;20066;-61
2023/08/26 08:30:10;;;;;;;2.58;1.08;;;;;;;19.31;100.00;100988.56;4996823;28;20034;-61
2023/08/26 08:32:35;;;;;;;1.60;1.50;;;;;;;19.37;100.00;100981.94;4999445;28;20104;-59
2023/08/26 08:35:04;;;;;;;1.35;1.20;;;;;;;19.24;100.00;100995.28;4996078;28;20017;-61
2023/08/26 08:37:30;;;;;;;1.48;1.27;;;;;;;19.23;100.00;100996.25;4998925;28;20029;-64
2023/08/26 08:39:56;;;;;;;3.05;1.52;;;;;;;19.27;100.00;100995.09;4995059;28;20022;-61
2023/08/26 08:42:22;;;;;;;2.28;1.52;;;;;;;19.35;100.00;101002.56;5010771;28;20045;-62
2023/08/26 08:44:48;;;;;;;2.10;1.90;;;;;;;19.51;100.00;100991.69;5008132;28;20049;-61
2023/08/26 08:47:13;;;;;;;1.75;1.60;;;;;;;19.65;100.00;100991.56;5007972;28;20495;-61
2023/08/26 08:49:41;;;;;;;4.43;1.83;;;;;;;19.78;100.00;100994.22;5008153;28;20030;-61
2023/08/26 08:52:07;;;;;;;2.90;2.30;;;;;;;19.64;100.00;101002.34;4974372;28;20060;-61
2023/08/26 08:54:34;;;;;;;2.97;2.03;;;;;;;19.72;100.00;101004.50;4990157;28;20814;-62
2023/08/26 08:57:00;;;;;;;2.08;1.92;;;;;;;19.71;100.00;101000.94;4989888;28;20500;-63
2023/08/26 08:59:26;;;;;;;2.33;2.08;;;;;;;19.76;100.00;101003.31;5006799;28;20018;-62
2023/08/26 09:01:58;;;;;;;3.80;1.92;;;;;;;19.98;100.00;101004.47;5007892;28;20030;-62
2023/08/26 09:04:26;;;;;;;1.92;1.75;;;;;;;20.07;100.00;101007.38;5008210;28;20045;-62
2023/08/26 09:06:52;;;;;;;3.80;1.42;;;;;;;20.23;99.48;101003.59;4993391;28;20036;-62
2023/08/26 09:09:20;;;;;;;2.85;1.45;;;;;;;20.38;99.44;101004.25;4988036;28;20417;-62
2023/08/26 09:11:48;;;;;;;4.00;1.60;;;;;;;20.18;100.00;101001.25;4986869;28;20057;-60
2023/08/26 09:14:14;;;;;;;;;;;;;;;20.33;99.60;101001.97;5006399;28;20037;-62
2023/08/26 09:16:41;;;;;;;5.85;2.20;;;;;;;20.43;97.07;101004.81;5007170;28;20371;-61
2023/08/26 09:19:12;;;;;;;4.65;1.80;;;;;;;20.54;96.08;100998.66;5007893;28;20022;-63
2023/08/26 09:21:42;;;;;;;3.33;1.80;;;;;;;20.65;96.46;101003.19;5007781;28;20097;-63
2023/08/26 09:24:12;;;;;;;2.60;1.58;;;;;;;20.94;96.15;101010.91;5007354;28;20089;-62
2023/08/26 09:26:37;;;;;;;4.78;1.88;;;;;;;20.77;98.93;101013.97;4990105;28;20022;-61
2023/08/26 09:29:11;;;;;;;3.45;1.70;;;;;;;21.12;94.06;101018.53;5007534;28;20048;-62
2023/08/26 09:31:48;;;;;;;5.15;1.92;;;;;;;21.27;92.07;101021.84;4989444;28;20059;-62
2023/08/26 09:34:22;;;;;;;2.47;2.00;;;;;;;21.20;94.57;101016.09;5008092;28;20088;-62
2023/08/26 09:36:48;;;;;;;2.63;1.80;;;;;;;21.10;92.95;101023.13;4995917;28;20041;-63
2023/08/26 09:39:14;;;;;;;3.90;1.88;;;;;;;21.27;91.89;101020.97;5007336;28;20472;-61
2023/08/26 09:41:44;;;;;;;5.00;2.17;;;;;;;21.25;89.99;101012.22;4989913;28;20049;-63
2023/08/26 09:44:10;;;;;;;3.83;2.00;;;;;;;21.20;89.05;101016.09;4989247;28;20026;-62
2023/08/26 09:46:36;;;;;;;3.25;1.88;;;;;;;21.33;90.94;101009.78;5006784;28;20026;-62
2023/08/26 09:49:03;;;;;;;3.38;2.03;;;;;;;21.31;89.11;101017.97;5007071;28;20091;-61
2023/08/26 09:51:29;;;;;;;4.55;1.67;;;;;;;21.16;90.40;101009.28;5008244;28;20137;-57
2023/08/26 09:53:56;;;;;;;4.90;1.77;;;;;;;20.91;94.28;101019.19;5005874;28;20026;-62
2023/08/26 09:56:27;;;;;;;1.90;1.50;;;;;;;20.85;95.24;101016.94;5008070;28;20082;-61
2023/08/26 09:58:54;;;;;;;3.10;1.45;;;;;;;20.75;95.14;101016.78;5002102;28;20101;-63
2023/08/26 10:01:20;;;;;;;2.28;1.15;;;;;;;20.67;95.06;101025.38;5010418;28;20026;-63
2023/08/26 10:03:50;;;;;;;3.03;1.15;;;;;;;20.50;95.00;101021.25;5009726;28;20046;-63
2023/08/26 10:06:16;;;;;;;2.45;1.17;;;;;;;20.42;95.65;101015.63;5011575;28;20030;-62
2023/08/26 10:08:41;;;;;;;2.90;1.20;;;;;;;20.45;95.06;101023.41;4991809;28;20037;-61
2023/08/26 10:11:07;;;;;;;3.80;1.13;;;;;;;20.56;94.84;101033.34;4993513;28;20026;-62
2023/08/26 10:13:35;;;;;;;3.30;1.40;;;;;;;20.65;94.52;101027.28;4992225;28;20104;-65
2023/08/26 10:16:01;;;;;;;1.98;1.05;;;;;;;20.95;94.29;101027.84;5025003;28;20049;-62
2023/08/26 10:18:35;;;;;;;2.03;1.30;;;;;;;21.17;93.25;101021.72;5012746;28;20072;-61
2023/08/26 10:21:03;;;;;;;1.73;1.20;;;;;;;21.42;93.01;101017.13;5004237;28;20022;-62
2023/08/26 10:23:29;;;;;;;4.13;1.50;;;;;;;21.84;90.80;101007.69;5010873;28;20029;-64
2023/08/26 10:25:56;;;;;;;6.75;1.58;;;;;;;22.02;88.18;101004.50;5010176;28;20066;-60
2023/08/26 10:28:22;;;;;;;3.72;1.15;;;;;;;22.08;87.36;101009.38;4996546;28;20037;-63
2023/08/26 10:30:48;;;;;;;2.17;1.25;;;;;;;21.90;87.71;101009.88;4991248;28;20026;-65
2023/08/26 10:33:13;;;;;;;6.43;1.67;;;;;;;21.81;88.30;101005.25;5009659;28;20034;-62
2023/08/26 10:35:39;;;;;;;2.70;1.23;;;;;;;21.98;88.75;101005.75;5022691;28;20550;-61
2023/08/26 10:38:09;;;;;;;3.35;1.13;;;;;;;22.05;90.79;101009.63;5013758;28;20064;-62
2023/08/26 10:40:34;;;;;;;7.93;1.88;;;;;;;22.28;85.14;101001.56;4989867;28;20023;-62
2023/08/26 10:43:05;;;;;;;6.80;1.42;;;;;;;22.37;85.45;101008.88;5004420;28;20080;-61
2023/08/26 10:45:30;;;;;;;1.42;1.20;;;;;;;22.22;83.21;101010.97;5007481;28;20030;-61
2023/08/26 10:47:56;;;;;;;2.17;1.20;;;;;;;22.17;85.41;101010.47;5010015;28;20431;-63
2023/08/26 10:50:25;;;;;;;1.80;1.48;;;;;;;22.40;82.97;101005.94;5009377;28;20435;-63
2023/08/26 10:52:53;;;;;;;2.35;1.33;;;;;;;22.45;82.80;101006.38;5010334;28;20492;-62
2023/08/26 10:55:21;;;;;;;5.97;1.65;;;;;;;22.46;82.46;101016.13;5007077;28;21166;-62
2023/08/26 10:58:06;;;;;;;3.83;1.45;;;;;;;22.81;81.66;101018.75;5010309;28;20030;-62
2023/08/26 11:00:33;;;;;;;6.18;1.20;;;;;;;22.63;82.13;101000.50;5007633;28;20083;-61
2023/08/26 11:02:59;;;;;;;3.22;1.48;;;;;;;22.85;80.30;101004.94;5008795;28;20021;-61
2023/08/26 11:05:25;;;;;;;5.53;1.30;;;;;;;22.65;81.19;101006.59;5009748;28;20105;-64
2023/08/26 11:07:50;;;;;;;3.35;1.23;;;;;;;22.63;77.73;101007.72;5009311;28;20052;-64
2023/08/26 11:10:29;;;;;;;3.00;1.15;;;;;;;22.24;77.69;101013.53;4997617;28;20022;-63
2023/08/26 11:12:55;;;;;;;2.42;0.95;;;;;;;21.94;80.90;101003.28;5007160;28;20033;-63